Time;durP1;ratioP1;P1;durP2;ratioP2;P2;SDS_P1;SDS_P2;PMS_P1;PMS_P2;Temp;Humidity;BMP_temperature;BMP_pressure;BME280_temperature;BME280_humidity;BME280_pressure;Samples;Min_cycle;Max_cycle;Signal;HPM_P1;HPM_P2
2023/03/31 00:01:33;;;;;;;21.75;4.72;;;;;;;;;;5052985;28;20045;-63
2023/03/31 00:04:03;;;;;;;23.58;3.72;;;;;;;;;;5053404;28;20802;-63
2023/03/31 00:06:36;;;;;;;32.50;4.15;;;;;;;;;;5034807;28;20042;-63
2023/03/31 00:09:06;;;;;;;21.50;3.80;;;;;;;;;;5053005;28;20143;-63
2023/03/31 00:11:32;;;;;;;19.77;3.63;;;;;;;;;;5053251;28;20056;-63
2023/03/31 00:13:58;;;;;;;24.50;4.00;;;;;;;;;;5052694;28;20048;-63
2023/03/31 00:16:25;;;;;;;18.17;3.47;;;;;;;;;;5053153;28;20041;-63
2023/03/31 00:18:51;;;;;;;21.00;3.83;;;;;;;;;;5053037;28;20055;-63
2023/03/31 00:21:23;;;;;;;23.08;3.72;;;;;;;;;;5052376;28;20486;-63
2023/03/31 00:23:56;;;;;;;30.05;4.43;;;;;;;;;;5052739;28;20235;-63
2023/03/31 00:26:22;;;;;;;26.30;4.82;;;;;;;;;;5052999;28;20411;-63
2023/03/31 00:28:49;;;;;;;20.90;3.80;;;;;;;;;;5052266;28;20037;-63
2023/03/31 00:31:16;;;;;;;20.90;4.53;;;;;;;;;;5052698;28;20090;-63
2023/03/31 00:33:42;;;;;;;22.33;3.78;;;;;;;;;;5035051;28;20472;-63
2023/03/31 00:36:08;;;;;;;23.80;3.75;;;;;;;;;;5050900;28;20045;-63
2023/03/31 00:38:34;;;;;;;25.05;3.92;;;;;;;;;;5052677;28;20036;-63
2023/03/31 00:41:01;;;;;;;20.58;4.10;;;;;;;;;;5052163;28;20052;-63
2023/03/31 00:43:29;;;;;;;23.08;3.70;;;;;;;;;;5051727;28;20080;-63
2023/03/31 00:46:07;;;;;;;20.60;4.07;;;;;;;;;;5052681;28;20037;-63
2023/03/31 00:48:34;;;;;;;24.58;3.80;;;;;;;;;;5052646;28;20526;-63
2023/03/31 00:51:03;;;;;;;24.30;4.00;;;;;;;;;;5051786;28;20041;-63
2023/03/31 00:53:31;;;;;;;25.25;3.83;;;;;;;;;;5052680;28;20084;-63
2023/03/31 00:55:59;;;;;;;27.58;4.35;;;;;;;;;;5052169;28;20037;-63
2023/03/31 00:58:27;;;;;;;22.25;3.70;;;;;;;;;;5051884;28;20049;-63
2023/03/31 01:00:54;;;;;;;25.58;3.92;;;;;;;;;;5051928;28;20079;-63
2023/03/31 01:03:24;;;;;;;19.60;3.50;;;;;;;;;;5052117;28;20041;-63
2023/03/31 01:05:55;;;;;;;18.67;3.38;;;;;;;;;;5051781;28;20040;-63
2023/03/31 01:08:23;;;;;;;19.23;4.50;;;;;;;;;;5052326;28;20056;-63
2023/03/31 01:11:05;;;;;;;19.05;4.00;;;;;;;;;;5052021;28;20128;-63
2023/03/31 01:13:31;;;;;;;18.27;3.75;;;;;;;;;;5051782;28;20101;-63
2023/03/31 01:15:57;;;;;;;17.83;3.28;;;;;;;;;;5052066;28;20041;-63
2023/03/31 01:18:24;;;;;;;20.42;3.58;;;;;;;;;;5052058;28;20151;-63
2023/03/31 01:21:02;;;;;;;20.83;3.25;;;;;;;;;;5051048;28;20131;-63
2023/03/31 01:23:45;;;;;;;22.65;3.58;;;;;;;;;;5051522;28;20092;-63
2023/03/31 01:26:24;;;;;;;22.25;3.63;;;;;;;;;;5051521;28;20037;-63
2023/03/31 01:28:51;;;;;;;24.50;4.60;;;;;;;;;;5051275;28;20033;-63
2023/03/31 01:31:23;;;;;;;28.90;4.45;;;;;;;;;;5051833;28;20090;-63
2023/03/31 01:34:04;;;;;;;29.65;4.13;;;;;;;;;;5051706;28;20123;-63
2023/03/31 01:36:49;;;;;;;21.92;3.47;;;;;;;;;;5051080;28;20045;-63
2023/03/31 01:39:18;;;;;;;31.58;3.63;;;;;;;;;;5051111;28;20463;-63
2023/03/31 01:41:49;;;;;;;19.25;3.88;;;;;;;;;;5051687;28;20753;-63
2023/03/31 01:44:34;;;;;;;18.95;3.92;;;;;;;;;;5051006;28;20152;-63
2023/03/31 01:47:10;;;;;;;20.52;2.92;;;;;;;;;;5033599;28;20041;-63
2023/03/31 01:49:47;;;;;;;20.50;3.60;;;;;;;;;;5030804;28;20523;-63
2023/03/31 01:52:17;;;;;;;21.45;3.38;;;;;;;;;;5031495;28;20530;-63
2023/03/31 01:55:07;;;;;;;24.75;4.00;;;;;;;;;;5031460;28;20049;-63
2023/03/31 01:57:38;;;;;;;23.38;4.35;;;;;;;;;;5020670;28;20065;-63
2023/03/31 02:00:10;;;;;;;20.50;3.55;;;;;;;;;;5031283;28;20041;-63
2023/03/31 02:02:38;;;;;;;19.23;3.38;;;;;;;;;;5030133;28;20077;-63
2023/03/31 02:05:12;;;;;;;23.52;4.38;;;;;;;;;;5030631;28;20399;-63
2023/03/31 02:07:46;;;;;;;17.88;4.38;;;;;;;;;;5013388;28;20116;-63
2023/03/31 02:10:14;;;;;;;17.90;3.80;;;;;;;;;;5030910;28;20046;-63
2023/03/31 02:12:42;;;;;;;17.70;4.30;;;;;;;;;;5030781;28;20373;-63
2023/03/31 02:15:09;;;;;;;28.83;4.30;;;;;;;;;;5031114;28;20046;-63
2023/03/31 02:17:39;;;;;;;15.93;3.67;;;;;;;;;;5031028;28;20565;-63
2023/03/31 02:20:08;;;;;;;15.50;3.47;;;;;;;;;;5030014;28;20049;-63
2023/03/31 02:22:36;;;;;;;25.65;4.00;;;;;;;;;;5030536;28;20065;-63
2023/03/31 02:25:04;;;;;;;23.08;4.38;;;;;;;;;;5037578;28;20045;-63
2023/03/31 02:27:36;;;;;;;17.58;3.97;;;;;;;;;;5050012;28;20098;-63
2023/03/31 02:30:02;;;;;;;19.25;3.53;;;;;;;;;;5050458;28;20045;-63
2023/03/31 02:32:34;;;;;;;14.13;3.35;;;;;;;;;;5050694;28;20152;-63
2023/03/31 02:35:00;;;;;;;18.88;4.10;;;;;;;;;;5050173;28;20055;-63
2023/03/31 02:37:27;;;;;;;17.00;3.45;;;;;;;;;;5050600;28;20120;-63
2023/03/31 02:39:54;;;;;;;15.32;3.15;;;;;;;;;;5050318;28;20040;-63
2023/03/31 02:42:20;;;;;;;19.05;3.70;;;;;;;;;;5050039;28;20068;-63
2023/03/31 02:44:47;;;;;;;18.13;3.50;;;;;;;;;;5050248;28;20041;-63
2023/03/31 02:47:14;;;;;;;22.27;4.47;;;;;;;;;;5050388;28;20061;-63
2023/03/31 02:49:42;;;;;;;19.60;4.07;;;;;;;;;;5049115;28;20102;-63
2023/03/31 02:52:17;;;;;;;13.82;3.83;;;;;;;;;;5050670;28;20088;-63
2023/03/31 02:54:45;;;;;;;18.23;4.78;;;;;;;;;;5050175;28;20072;-63
2023/03/31 02:57:19;;;;;;;16.10;3.50;;;;;;;;;;5049572;28;20055;-63
2023/03/31 02:59:57;;;;;;;15.88;3.85;;;;;;;;;;5049463;28;20119;-63
2023/03/31 03:02:42;;;;;;;17.00;3.75;;;;;;;;;;5050160;28;20456;-63
2023/03/31 03:05:17;;;;;;;11.48;3.30;;;;;;;;;;5049635;28;20040;-63
2023/03/31 03:07:57;;;;;;;16.33;4.25;;;;;;;;;;5050297;28;20123;-63
2023/03/31 03:10:26;;;;;;;11.65;3.40;;;;;;;;;;5049997;28;20484;-63
2023/03/31 03:12:59;;;;;;;13.40;3.90;;;;;;;;;;5049837;28;20087;-63
2023/03/31 03:15:30;;;;;;;12.20;3.67;;;;;;;;;;5050245;28;20644;-63
2023/03/31 03:17:57;;;;;;;17.52;4.35;;;;;;;;;;5050274;28;20049;-63
2023/03/31 03:20:23;;;;;;;17.20;4.45;;;;;;;;;;5049283;28;20040;-63
2023/03/31 03:22:49;;;;;;;13.32;4.07;;;;;;;;;;5049643;28;20627;-63
2023/03/31 03:25:16;;;;;;;13.07;4.35;;;;;;;;;;5049817;28;20044;-63
2023/03/31 03:27:43;;;;;;;12.20;4.32;;;;;;;;;;5049608;28;20124;-63
2023/03/31 03:30:10;;;;;;;14.60;4.90;;;;;;;;;;5049934;28;20068;-63
2023/03/31 03:32:36;;;;;;;15.13;4.18;;;;;;;;;;5049888;28;20095;-63
2023/03/31 03:35:04;;;;;;;12.02;4.40;;;;;;;;;;5031710;28;20052;-63
2023/03/31 03:37:30;;;;;;;13.43;5.03;;;;;;;;;;5050028;28;20095;-63
2023/03/31 03:39:56;;;;;;;17.08;4.10;;;;;;;;;;5049461;28;20045;-63
2023/03/31 03:42:22;;;;;;;11.57;4.25;;;;;;;;;;5049242;28;20045;-63
2023/03/31 03:44:48;;;;;;;12.35;4.50;;;;;;;;;;5049953;28;20533;-63
2023/03/31 03:47:15;;;;;;;14.98;5.18;;;;;;;;;;5049469;28;20049;-63
2023/03/31 03:49:41;;;;;;;16.40;5.28;;;;;;;;;;5048939;28;20045;-63
2023/03/31 03:52:07;;;;;;;12.25;5.00;;;;;;;;;;5050048;28;20132;-63
2023/03/31 03:54:33;;;;;;;14.35;5.35;;;;;;;;;;5050058;28;20080;-63
2023/03/31 03:56:59;;;;;;;16.08;5.03;;;;;;;;;;5049269;28;20044;-63
2023/03/31 03:59:25;;;;;;;11.65;4.70;;;;;;;;;;5049109;28;20047;-63
2023/03/31 04:01:51;;;;;;;14.73;5.03;;;;;;;;;;5049745;28;20124;-63
2023/03/31 04:04:17;;;;;;;12.38;5.35;;;;;;;;;;5049360;28;20045;-63
2023/03/31 04:06:43;;;;;;;13.93;4.60;;;;;;;;;;5049810;28;20463;-63
2023/03/31 04:09:10;;;;;;;16.73;4.68;;;;;;;;;;5049776;28;20048;-63
2023/03/31 04:11:36;;;;;;;11.52;4.93;;;;;;;;;;5052734;28;20049;-63
2023/03/31 04:14:02;;;;;;;14.93;5.00;;;;;;;;;;5052947;28;20045;-63
2023/03/31 04:16:28;;;;;;;19.58;5.50;;;;;;;;;;5053137;28;20476;-63
2023/03/31 04:18:57;;;;;;;13.40;4.85;;;;;;;;;;5052329;28;20041;-63
2023/03/31 04:21:23;;;;;;;10.85;4.40;;;;;;;;;;5052714;28;20163;-63
2023/03/31 04:23:57;;;;;;;17.02;4.85;;;;;;;;;;5052846;28;20758;-63
2023/03/31 04:26:29;;;;;;;13.80;4.70;;;;;;;;;;5052449;28;20041;-63
2023/03/31 04:28:57;;;;;;;13.45;4.65;;;;;;;;;;5052697;28;20099;-63
2023/03/31 04:31:26;;;;;;;17.63;5.32;;;;;;;;;;5034770;28;20049;-63
2023/03/31 04:33:53;;;;;;;8.45;4.43;;;;;;;;;;5034028;28;20045;-63
2023/03/31 04:36:19;;;;;;;13.32;4.30;;;;;;;;;;5052801;28;20037;-63
2023/03/31 04:38:46;;;;;;;15.60;4.55;;;;;;;;;;5052374;28;20099;-63
2023/03/31 04:41:13;;;;;;;14.45;4.60;;;;;;;;;;5051824;28;20076;-63
2023/03/31 04:43:39;;;;;;;16.48;4.28;;;;;;;;;;5052719;28;20041;-63
2023/03/31 04:46:05;;;;;;;10.95;3.88;;;;;;;;;;5052453;28;20037;-63
2023/03/31 04:48:31;;;;;;;12.10;4.22;;;;;;;;;;5051837;28;20049;-63
2023/03/31 04:50:57;;;;;;;14.93;4.22;;;;;;;;;;5052005;28;20076;-63
2023/03/31 04:53:23;;;;;;;11.07;4.22;;;;;;;;;;5052315;28;20049;-63
2023/03/31 04:55:50;;;;;;;12.50;3.70;;;;;;;;;;5051871;28;20098;-63
2023/03/31 04:58:16;;;;;;;17.60;4.28;;;;;;;;;;5052232;28;20505;-63
2023/03/31 05:00:42;;;;;;;11.23;3.42;;;;;;;;;;5051967;28;20041;-63
2023/03/31 05:03:08;;;;;;;11.13;3.47;;;;;;;;;;5047518;28;20446;-63
2023/03/31 05:05:35;;;;;;;14.10;3.90;;;;;;;;;;5047427;28;20041;-63
2023/03/31 05:08:01;;;;;;;13.27;3.95;;;;;;;;;;5051505;28;20229;-63
2023/03/31 05:10:27;;;;;;;12.77;3.95;;;;;;;;;;5051222;28;20048;-63
2023/03/31 05:12:53;;;;;;;13.30;3.67;;;;;;;;;;5052096;28;20036;-62
2023/03/31 05:15:20;;;;;;;12.15;3.90;;;;;;;;;;5051561;28;20665;-63
2023/03/31 05:17:46;;;;;;;10.88;3.63;;;;;;;;;;5051180;28;20474;-63
2023/03/31 05:20:12;;;;;;;12.50;3.80;;;;;;;;;;5051387;28;20073;-62
2023/03/31 05:22:39;;;;;;;11.52;4.15;;;;;;;;;;5050804;28;20060;-62
2023/03/31 05:25:06;;;;;;;10.68;3.92;;;;;;;;;;5050774;28;20045;-62
2023/03/31 05:27:32;;;;;;;10.80;4.03;;;;;;;;;;5051627;28;20589;-63
2023/03/31 05:29:59;;;;;;;13.18;3.70;;;;;;;;;;5051442;28;20043;-63
2023/03/31 05:32:26;;;;;;;10.27;3.67;;;;;;;;;;5050938;28;20111;-63
2023/03/31 05:34:55;;;;;;;11.13;4.30;;;;;;;;;;5051303;28;20513;-62
2023/03/31 05:37:21;;;;;;;11.80;3.88;;;;;;;;;;5051268;28;20056;-63
2023/03/31 05:39:47;;;;;;;9.88;4.05;;;;;;;;;;5050378;28;20052;-63
2023/03/31 05:42:14;;;;;;;13.25;4.15;;;;;;;;;;5051314;28;20049;-63
2023/03/31 05:44:39;;;;;;;13.40;4.65;;;;;;;;;;5051284;28;20033;-63
2023/03/31 05:47:06;;;;;;;12.20;3.92;;;;;;;;;;5050430;28;20037;-62
2023/03/31 05:49:35;;;;;;;11.15;3.85;;;;;;;;;;5050984;28;20068;-63
2023/03/31 05:52:01;;;;;;;11.45;4.50;;;;;;;;;;5049891;28;20052;-64
2023/03/31 05:54:27;;;;;;;10.48;4.30;;;;;;;;;;5050394;28;20037;-63
2023/03/31 05:56:53;;;;;;;7.68;4.03;;;;;;;;;;5050944;28;20051;-64
2023/03/31 05:59:19;;;;;;;14.60;4.63;;;;;;;;;;5050172;28;20475;-64
2023/03/31 06:01:45;;;;;;;8.45;3.50;;;;;;;;;;5050177;28;20503;-64
2023/03/31 06:04:11;;;;;;;11.20;4.22;;;;;;;;;;5050411;28;20043;-64
2023/03/31 06:06:37;;;;;;;9.10;3.95;;;;;;;;;;5050366;28;20041;-64
2023/03/31 06:09:04;;;;;;;7.90;3.70;;;;;;;;;;5049989;28;20041;-64
2023/03/31 06:11:30;;;;;;;12.07;4.20;;;;;;;;;;5050115;28;20083;-63
2023/03/31 06:13:56;;;;;;;8.50;3.95;;;;;;;;;;5050762;28;20044;-63
2023/03/31 06:16:22;;;;;;;11.93;4.00;;;;;;;;;;5049506;28;20041;-64
2023/03/31 06:18:50;;;;;;;7.70;3.75;;;;;;;;;;5049413;28;20068;-64
2023/03/31 06:21:16;;;;;;;9.02;3.80;;;;;;;;;;5049696;28;20102;-63
2023/03/31 06:23:43;;;;;;;7.05;3.60;;;;;;;;;;5048433;28;20395;-65
2023/03/31 06:26:13;;;;;;;6.75;3.47;;;;;;;;;;5044801;28;20053;-66
2023/03/31 06:28:39;;;;;;;7.32;3.20;;;;;;;;;;5046367;28;20041;-65
2023/03/31 06:31:16;;;;;;;6.15;3.03;;;;;;;;;;5048779;28;20693;-64
2023/03/31 06:33:42;;;;;;;11.75;2.92;;;;;;;;;;5048858;28;20391;-65
2023/03/31 06:36:09;;;;;;;7.65;3.10;;;;;;;;;;5049759;28;20044;-63
2023/03/31 06:38:37;;;;;;;9.05;3.40;;;;;;;;;;5048899;28;20044;-65
2023/03/31 06:41:03;;;;;;;11.63;3.78;;;;;;;;;;5045255;28;20466;-65
2023/03/31 06:43:29;;;;;;;9.23;3.75;;;;;;;;;;5049652;28;20091;-64
2023/03/31 06:45:56;;;;;;;8.75;3.75;;;;;;;;;;5049442;28;20041;-64
2023/03/31 06:48:22;;;;;;;11.98;3.58;;;;;;;;;;5049147;28;20063;-62
2023/03/31 06:50:48;;;;;;;10.40;3.50;;;;;;;;;;5049026;28;20083;-62
2023/03/31 06:53:15;;;;;;;9.82;3.78;;;;;;;;;;5048972;28;20045;-64
2023/03/31 06:55:41;;;;;;;11.20;3.65;;;;;;;;;;5048818;28;20527;-63
2023/03/31 06:58:07;;;;;;;8.30;3.55;;;;;;;;;;5049301;28;20037;-63
2023/03/31 07:00:33;;;;;;;11.70;3.65;;;;;;;;;;5047895;28;20056;-64
2023/03/31 07:03:00;;;;;;;9.27;3.97;;;;;;;;;;5034056;28;20055;-63
2023/03/31 07:05:27;;;;;;;8.93;3.83;;;;;;;;;;5040849;28;20060;-63
2023/03/31 07:07:57;;;;;;;8.13;3.70;;;;;;;;;;5048733;28;20040;-64
2023/03/31 07:10:24;;;;;;;12.43;3.90;;;;;;;;;;5049502;28;20056;-61
2023/03/31 07:12:50;;;;;;;8.77;3.92;;;;;;;;;;5049599;28;20045;-63
2023/03/31 07:15:16;;;;;;;9.45;3.60;;;;;;;;;;5049279;28;20041;-63
2023/03/31 07:17:42;;;;;;;8.43;3.42;;;;;;;;;;5044952;28;20040;-63
2023/03/31 07:20:11;;;;;;;12.02;3.90;;;;;;;;;;5048927;28;20483;-62
2023/03/31 07:22:37;;;;;;;10.27;3.40;;;;;;;;;;5048274;28;20067;-63
2023/03/31 07:25:03;;;;;;;11.38;3.63;;;;;;;;;;5049114;28;20037;-61
2023/03/31 07:27:29;;;;;;;9.15;3.28;;;;;;;;;;5048568;28;20143;-62
2023/03/31 07:29:55;;;;;;;8.55;3.05;;;;;;;;;;5048505;28;20079;-63
2023/03/31 07:32:22;;;;;;;10.18;3.80;;;;;;;;;;5048939;28;20048;-63
2023/03/31 07:34:48;;;;;;;13.15;3.55;;;;;;;;;;5049316;28;20492;-62
2023/03/31 07:37:14;;;;;;;9.20;3.80;;;;;;;;;;5049162;28;20045;-63
2023/03/31 07:39:40;;;;;;;14.05;3.80;;;;;;;;;;5048406;28;20064;-63
2023/03/31 07:42:06;;;;;;;13.40;4.07;;;;;;;;;;5049090;28;20124;-63
2023/03/31 07:44:33;;;;;;;13.23;3.88;;;;;;;;;;5050038;28;20041;-64
2023/03/31 07:47:03;;;;;;;12.00;4.10;;;;;;;;;;5052684;28;20040;-62
2023/03/31 07:49:30;;;;;;;10.45;4.10;;;;;;;;;;5052752;28;20045;-64
2023/03/31 07:51:56;;;;;;;9.50;3.67;;;;;;;;;;5052590;28;20080;-63
2023/03/31 07:54:22;;;;;;;10.93;4.18;;;;;;;;;;5052600;28;20059;-62
2023/03/31 07:56:48;;;;;;;12.50;4.00;;;;;;;;;;5052755;28;20036;-63
2023/03/31 07:59:14;;;;;;;10.27;3.80;;;;;;;;;;5051878;28;20636;-63
2023/03/31 08:01:40;;;;;;;16.50;4.68;;;;;;;;;;5051960;28;20041;-63
2023/03/31 08:04:06;;;;;;;12.05;4.43;;;;;;;;;;5052653;28;20040;-63
2023/03/31 08:06:32;;;;;;;11.18;3.75;;;;;;;;;;5053118;28;20037;-63
2023/03/31 08:08:59;;;;;;;10.68;4.15;;;;;;;;;;5051552;28;20041;-63
2023/03/31 08:11:25;;;;;;;11.88;4.05;;;;;;;;;;5051685;28;20052;-63
2023/03/31 08:13:51;;;;;;;13.05;4.13;;;;;;;;;;5052810;28;20041;-63
2023/03/31 08:16:17;;;;;;;13.77;3.65;;;;;;;;;;5051723;28;20044;-63
2023/03/31 08:18:43;;;;;;;15.18;4.20;;;;;;;;;;5052241;28;20475;-63
2023/03/31 08:21:10;;;;;;;8.98;3.92;;;;;;;;;;5051711;28;20045;-63
2023/03/31 08:23:36;;;;;;;12.73;4.43;;;;;;;;;;5050964;28;20060;-63
2023/03/31 08:26:12;;;;;;;9.65;3.35;;;;;;;;;;5052570;28;20041;-63
2023/03/31 08:28:38;;;;;;;13.65;3.60;;;;;;;;;;5051719;28;20045;-63
2023/03/31 08:31:05;;;;;;;12.70;3.70;;;;;;;;;;5051047;28;20056;-62
2023/03/31 08:33:32;;;;;;;10.80;3.70;;;;;;;;;;5051693;28;20403;-64
2023/03/31 08:36:01;;;;;;;12.82;3.47;;;;;;;;;;5046054;28;20487;-64
2023/03/31 08:38:27;;;;;;;10.13;3.53;;;;;;;;;;5051025;28;20044;-65
2023/03/31 08:40:58;;;;;;;12.05;4.25;;;;;;;;;;5050516;28;20128;-62
2023/03/31 08:43:27;;;;;;;11.15;3.75;;;;;;;;;;5051191;28;20044;-63
2023/03/31 08:45:53;;;;;;;16.10;3.95;;;;;;;;;;5051188;28;20083;-63
2023/03/31 08:48:26;;;;;;;15.60;4.30;;;;;;;;;;5051026;28;20029;-64
2023/03/31 08:50:58;;;;;;;9.52;3.30;;;;;;;;;;5051166;28;20110;-63
2023/03/31 08:53:26;;;;;;;7.95;3.38;;;;;;;;;;5050080;28;20056;-64
2023/03/31 08:55:53;;;;;;;11.32;3.15;;;;;;;;;;5050289;28;20076;-62
2023/03/31 08:58:39;;;;;;;11.85;3.70;;;;;;;;;;5051046;28;20045;-62
2023/03/31 09:01:24;;;;;;;10.13;3.10;;;;;;;;;;5051427;28;20048;-62
2023/03/31 09:04:01;;;;;;;7.43;3.30;;;;;;;;;;5051507;28;20088;-63
2023/03/31 09:06:42;;;;;;;11.10;2.90;;;;;;;;;;5051400;28;20529;-63
2023/03/31 09:09:19;;;;;;;8.95;3.40;;;;;;;;;;5049097;28;20095;-62
2023/03/31 09:11:50;;;;;;;11.50;3.60;;;;;;;;;;5051061;28;20037;-62
2023/03/31 09:14:25;;;;;;;9.30;3.17;;;;;;;;;;5051194;28;20387;-62
2023/03/31 09:17:00;;;;;;;12.90;3.33;;;;;;;;;;5051345;28;20525;-63
2023/03/31 09:19:40;;;;;;;9.60;2.97;;;;;;;;;;5050977;28;20111;-63
2023/03/31 09:22:11;;;;;;;7.35;2.95;;;;;;;;;;5050607;28;20155;-63
2023/03/31 09:24:45;;;;;;;9.32;3.33;;;;;;;;;;5046531;28;20387;-63
2023/03/31 09:27:11;;;;;;;9.25;3.10;;;;;;;;;;5050788;28;20101;-62
2023/03/31 09:29:37;;;;;;;10.68;3.72;;;;;;;;;;5049700;28;20083;-62
2023/03/31 09:32:21;;;;;;;7.65;2.40;;;;;;;;;;5045609;28;20068;-63
2023/03/31 09:34:50;;;;;;;10.05;3.58;;;;;;;;;;5051455;28;20043;-62
2023/03/31 09:37:16;;;;;;;8.50;2.55;;;;;;;;;;5048530;28;20037;-61
2023/03/31 09:39:42;;;;;;;8.27;2.70;;;;;;;;;;5050373;28;20111;-63
2023/03/31 09:42:12;;;;;;;7.40;2.88;;;;;;;;;;5050891;28;20041;-63
2023/03/31 09:44:39;;;;;;;8.93;2.78;;;;;;;;;;5050188;28;20568;-62
2023/03/31 09:47:18;;;;;;;5.13;2.90;;;;;;;;;;5050913;28;20041;-62
2023/03/31 09:49:46;;;;;;;6.38;2.67;;;;;;;;;;5045219;28;20045;-62
2023/03/31 09:52:15;;;;;;;7.53;2.70;;;;;;;;;;5049772;28;20411;-62
2023/03/31 09:54:45;;;;;;;5.68;2.17;;;;;;;;;;5050719;28;20059;-63
2023/03/31 09:57:22;;;;;;;6.78;2.40;;;;;;;;;;5050396;28;20041;-62
2023/03/31 09:59:50;;;;;;;8.55;2.72;;;;;;;;;;5049544;28;20045;-62
2023/03/31 10:02:27;;;;;;;6.38;2.58;;;;;;;;;;5050586;28;20048;-61
2023/03/31 10:04:54;;;;;;;6.32;2.33;;;;;;;;;;5045443;28;20044;-62
2023/03/31 10:07:23;;;;;;;4.88;2.03;;;;;;;;;;5049586;28;20048;-62
2023/03/31 10:09:50;;;;;;;7.35;1.77;;;;;;;;;;5050526;28;20124;-63
2023/03/31 10:12:21;;;;;;;7.47;2.10;;;;;;;;;;5050107;28;20037;-63
2023/03/31 10:14:48;;;;;;;4.50;2.20;;;;;;;;;;5049950;28;20060;-62
2023/03/31 10:17:16;;;;;;;7.68;2.25;;;;;;;;;;5049771;28;20044;-62
2023/03/31 10:19:57;;;;;;;5.65;2.15;;;;;;;;;;5049600;28;20263;-63
2023/03/31 10:22:23;;;;;;;5.07;2.05;;;;;;;;;;5049448;28;20484;-64
2023/03/31 10:24:50;;;;;;;3.85;1.77;;;;;;;;;;5049923;28;20101;-63
2023/03/31 10:27:21;;;;;;;7.85;1.80;;;;;;;;;;5050225;28;20045;-62
2023/03/31 10:29:48;;;;;;;7.25;1.90;;;;;;;;;;5049064;28;20040;-64
2023/03/31 10:32:22;;;;;;;5.90;1.92;;;;;;;;;;5049437;28;20088;-63
2023/03/31 10:34:48;;;;;;;7.75;2.05;;;;;;;;;;5049814;28;20079;-63
2023/03/31 10:37:17;;;;;;;6.68;2.17;;;;;;;;;;5049857;28;20135;-63
2023/03/31 10:39:44;;;;;;;7.20;2.05;;;;;;;;;;5049518;28;20036;-63
2023/03/31 10:42:11;;;;;;;4.00;2.13;;;;;;;;;;5049768;28;20049;-63
2023/03/31 10:44:38;;;;;;;7.30;2.35;;;;;;;;;;5049660;28;20399;-63
2023/03/31 10:47:24;;;;;;;7.32;2.60;;;;;;;;;;5049815;28;20075;-62
2023/03/31 10:49:56;;;;;;;4.78;2.08;;;;;;;;;;5049349;28;20394;-62
2023/03/31 10:52:25;;;;;;;5.70;2.47;;;;;;;;;;5050115;28;20479;-62
2023/03/31 10:54:56;;;;;;;5.63;2.30;;;;;;;;;;5050020;28;20055;-62
2023/03/31 10:57:28;;;;;;;5.60;2.05;;;;;;;;;;5031521;28;20056;-62
2023/03/31 11:00:04;;;;;;;5.75;2.10;;;;;;;;;;5049558;28;20045;-63
2023/03/31 11:03:03;;;;;;;6.47;2.20;;;;;;;;;;5031548;28;20418;-63
2023/03/31 11:05:29;;;;;;;7.93;2.40;;;;;;;;;;5025859;28;20515;-63
2023/03/31 11:08:01;;;;;;;4.05;1.88;;;;;;;;;;5049523;28;20041;-64
2023/03/31 11:10:51;;;;;;;7.25;2.50;;;;;;;;;;5049681;28;20041;-63
2023/03/31 11:13:40;;;;;;;8.98;2.58;;;;;;;;;;5025247;28;20052;-64
2023/03/31 11:16:09;;;;;;;11.85;2.78;;;;;;;;;;5043884;28;20055;-63
2023/03/31 11:18:54;;;;;;;6.75;2.53;;;;;;;;;;5050011;28;20361;-62
2023/03/31 11:21:27;;;;;;;10.45;2.40;;;;;;;;;;5053009;28;20063;-63
2023/03/31 11:24:01;;;;;;;7.22;2.22;;;;;;;;;;5052766;28;20048;-62
2023/03/31 11:26:46;;;;;;;12.23;2.80;;;;;;;;;;5053400;28;20040;-63
2023/03/31 11:29:31;;;;;;;6.50;2.53;;;;;;;;;;5053046;28;20052;-63
2023/03/31 11:32:25;;;;;;;8.57;3.10;;;;;;;;;;5053331;28;20049;-63
2023/03/31 11:34:59;;;;;;;8.07;2.72;;;;;;;;;;5052846;28;20048;-63
2023/03/31 11:37:54;;;;;;;5.35;2.50;;;;;;;;;;5053702;28;20036;-63
2023/03/31 11:40:20;;;;;;;8.10;3.00;;;;;;;;;;5044025;28;20084;-63
2023/03/31 11:42:46;;;;;;;10.35;3.00;;;;;;;;;;5052948;28;20084;-62
2023/03/31 11:45:20;;;;;;;6.10;3.20;;;;;;;;;;5053098;28;20087;-65
2023/03/31 11:47:49;;;;;;;8.75;3.90;;;;;;;;;;5053133;28;20036;-63
2023/03/31 11:50:18;;;;;;;8.85;3.85;;;;;;;;;;5053036;28;20044;-63
2023/03/31 11:52:48;;;;;;;7.45;4.10;;;;;;;;;;5052627;28;20049;-62
2023/03/31 11:55:22;;;;;;;13.30;4.03;;;;;;;;;;5053406;28;20037;-62
2023/03/31 11:57:51;;;;;;;10.52;4.28;;;;;;;;;;5052334;28;20055;-62
2023/03/31 12:00:19;;;;;;;10.23;4.25;;;;;;;;;;5045386;28;20048;-61
2023/03/31 12:02:52;;;;;;;8.95;4.03;;;;;;;;;;5052969;28;20069;-62
2023/03/31 12:05:18;;;;;;;9.65;4.68;;;;;;;;;;5051971;28;20070;-62
2023/03/31 12:08:05;;;;;;;9.73;4.10;;;;;;;;;;5052762;28;20033;-63
2023/03/31 12:10:35;;;;;;;11.68;4.00;;;;;;;;;;5049466;28;20040;-63
2023/03/31 12:13:16;;;;;;;11.40;3.60;;;;;;;;;;5052049;28;20434;-64
2023/03/31 12:15:51;;;;;;;8.98;3.30;;;;;;;;;;5052057;28;20545;-63
2023/03/31 12:18:24;;;;;;;13.32;3.72;;;;;;;;;;5052982;28;20064;-62
2023/03/31 12:20:55;;;;;;;11.15;4.18;;;;;;;;;;5051879;28;20527;-62
2023/03/31 12:23:23;;;;;;;12.20;3.47;;;;;;;;;;5052213;28;20088;-64
2023/03/31 12:26:01;;;;;;;11.93;3.55;;;;;;;;;;5051718;28;20045;-63
2023/03/31 12:28:27;;;;;;;11.45;3.70;;;;;;;;;;5052566;28;20032;-64
2023/03/31 12:30:55;;;;;;;11.15;4.40;;;;;;;;;;5052447;28;20112;-65
2023/03/31 12:33:23;;;;;;;15.55;4.22;;;;;;;;;;5051625;28;20089;-62
2023/03/31 12:35:52;;;;;;;14.43;4.53;;;;;;;;;;5052252;28;20600;-63
2023/03/31 12:38:25;;;;;;;10.68;3.50;;;;;;;;;;5052416;28;20033;-64
2023/03/31 12:41:10;;;;;;;16.63;4.55;;;;;;;;;;5051053;28;20106;-64
2023/03/31 12:43:48;;;;;;;12.50;4.32;;;;;;;;;;5051900;28;20088;-64
2023/03/31 12:46:24;;;;;;;15.85;3.80;;;;;;;;;;5050946;28;20040;-63
2023/03/31 12:48:56;;;;;;;11.57;3.72;;;;;;;;;;5051612;28;20090;-62
2023/03/31 12:51:37;;;;;;;10.70;3.15;;;;;;;;;;5052299;28;20053;-63
2023/03/31 12:54:17;;;;;;;14.45;3.88;;;;;;;;;;5034263;28;20079;-63
2023/03/31 12:57:06;;;;;;;13.77;3.60;;;;;;;;;;5051020;28;20048;-62
2023/03/31 12:59:36;;;;;;;17.92;4.43;;;;;;;;;;5046306;28;20119;-63
2023/03/31 13:02:05;;;;;;;17.65;3.75;;;;;;;;;;5051553;28;20064;-64
2023/03/31 13:04:32;;;;;;;17.30;4.32;;;;;;;;;;5051009;28;20037;-64
2023/03/31 13:06:58;;;;;;;24.10;5.78;;;;;;;;;;5034149;28;20132;-63
2023/03/31 13:09:30;;;;;;;16.95;3.80;;;;;;;;;;5051730;28;20091;-63
2023/03/31 13:11:56;;;;;;;16.58;4.00;;;;;;;;;;5051237;28;20064;-63
2023/03/31 13:14:25;;;;;;;17.70;4.00;;;;;;;;;;5051885;28;20735;-63
2023/03/31 13:16:52;;;;;;;13.52;3.55;;;;;;;;;;5051448;28;20048;-64
2023/03/31 13:19:32;;;;;;;21.77;5.03;;;;;;;;;;5051081;28;20124;-63
2023/03/31 13:22:00;;;;;;;14.95;4.03;;;;;;;;;;5051360;28;20122;-63
2023/03/31 13:24:27;;;;;;;12.98;3.65;;;;;;;;;;5051483;28;20057;-63
2023/03/31 13:26:55;;;;;;;14.45;3.38;;;;;;;;;;5050883;28;20033;-63
2023/03/31 13:29:41;;;;;;;9.45;2.90;;;;;;;;;;5051203;28;20044;-63
2023/03/31 13:32:17;;;;;;;14.18;2.67;;;;;;;;;;5051360;28;20124;-63
2023/03/31 13:34:44;;;;;;;11.57;2.92;;;;;;;;;;5050762;28;20051;-63
2023/03/31 13:37:23;;;;;;;11.63;2.35;;;;;;;;;;5051261;28;20562;-63
2023/03/31 13:39:49;;;;;;;14.02;4.25;;;;;;;;;;5051102;28;20044;-63
2023/03/31 13:42:18;;;;;;;15.00;4.60;;;;;;;;;;5050556;28;20052;-62
2023/03/31 13:45:03;;;;;;;16.55;4.68;;;;;;;;;;5051060;28;20127;-62
2023/03/31 13:47:29;;;;;;;10.05;3.58;;;;;;;;;;5050324;28;20044;-63
2023/03/31 13:50:05;;;;;;;10.95;2.67;;;;;;;;;;5051106;28;20041;-63
2023/03/31 13:52:37;;;;;;;15.90;3.17;;;;;;;;;;5051127;28;20079;-63
2023/03/31 13:55:30;;;;;;;15.75;2.78;;;;;;;;;;5050525;28;20045;-62
2023/03/31 13:58:15;;;;;;;15.93;2.90;;;;;;;;;;5050965;28;20053;-62
2023/03/31 14:00:44;;;;;;;12.60;2.10;;;;;;;;;;5050904;28;20083;-64
2023/03/31 14:03:16;;;;;;;9.50;2.00;;;;;;;;;;5049849;28;20124;-62
2023/03/31 14:05:45;;;;;;;10.55;2.28;;;;;;;;;;5051051;28;20072;-62
2023/03/31 14:08:13;;;;;;;9.95;2.05;;;;;;;;;;5051275;28;20052;-61
2023/03/31 14:10:41;;;;;;;8.55;1.48;;;;;;;;;;5050272;28;20037;-62
2023/03/31 14:13:10;;;;;;;5.55;1.65;;;;;;;;;;5051006;28;20043;-62
2023/03/31 14:15:37;;;;;;;6.07;1.60;;;;;;;;;;5050952;28;20785;-61
2023/03/31 14:18:05;;;;;;;6.30;1.52;;;;;;;;;;5050400;28;20055;-62
2023/03/31 14:20:34;;;;;;;6.43;1.40;;;;;;;;;;5050903;28;20052;-62
2023/03/31 14:23:12;;;;;;;6.28;1.65;;;;;;;;;;5032543;28;20660;-62
2023/03/31 14:25:40;;;;;;;4.57;1.13;;;;;;;;;;5032078;28;20045;-62
2023/03/31 14:28:07;;;;;;;5.03;1.45;;;;;;;;;;5050850;28;20106;-62
2023/03/31 14:30:41;;;;;;;4.05;1.40;;;;;;;;;;5050478;28;20440;-61
2023/03/31 14:33:26;;;;;;;5.15;1.20;;;;;;;;;;5032170;28;20056;-61
2023/03/31 14:35:58;;;;;;;4.28;1.30;;;;;;;;;;5050341;28;20044;-62
2023/03/31 14:38:24;;;;;;;4.63;1.38;;;;;;;;;;5050630;28;20056;-61
2023/03/31 14:40:56;;;;;;;4.65;1.23;;;;;;;;;;5050034;28;20060;-61
2023/03/31 14:43:25;;;;;;;7.05;1.30;;;;;;;;;;5050257;28;20106;-61
2023/03/31 14:45:58;;;;;;;9.18;1.45;;;;;;;;;;5050140;28;20041;-61
2023/03/31 14:48:24;;;;;;;8.32;1.67;;;;;;;;;;5049940;28;20041;-62
2023/03/31 14:50:56;;;;;;;7.88;1.50;;;;;;;;;;5050074;28;20041;-61